Northwood, IA

8:18 PM CDT on March 28, 2015 (GMT -0500)
KMNGLENV5 | | Change Station
CLOSE
Current Station
Personal Weather Station
Location: Glenville, MN
Elevation: 1320 ft
Nearby Weather Stations
Active Advisory: Wind Advisory

Elev 1320 ft 43.54 °N, 93.24 °W | Updated 3 minutes ago

Clear
Clear
36.7 °F
Feels Like 26 °F
N
22.1
Wind Variable Wind from West
Gusts 22.1 mph

Today
High -- | Low -- °F
--% Chance of Precip.
Yesterday
High -- | Low -- °F
Precip. -- in
7:02 AM 7:34 PM
Waxing Gibbous, 67% visible
Pressure 30.05 in
Visibility 10.0 miles
Clouds Clear
Windchill 26 °F
Dew Point 16 °F
Humidity 42%
Rainfall 0.00 in
Snow Depth Not available.
UV 0 out of 12
Pollen 3.50 out of 12
Air Quality Not available.
Flu Activity Not available.
METAR KAEL 290111Z AUTO 16009KT 10SM CLR 03/M05 A3005 RMK AO2

More Conditions Fewer Conditions

Pressure 30.05 in
Visibility 10.0 miles
Clouds Clear
Windchill 26 °F
Dew Point 16 °F
Humidity 42%
Rainfall 0.00 in
Snow Depth Not available.
UV 0 out of 12
Pollen 3.50 out of 12
Air Quality Not available.
Flu Activity Not available.
METAR KAEL 290111Z AUTO 16009KT 10SM CLR 03/M05 A3005 RMK AO2

More Conditions Fewer Conditions

10-Day Weather Forecast

Almanac

Astronomy

Mar. 28, 2015 Rise Set
Actual Time
Civil Twilight
Nautical Twilight
Astronomical Twilight
Moon
Length of Visible Light
Length of Day
Tomorrow will be .
, % of the Moon is Illuminated

Today's Extremes

State Highs State Lows

Community

WunderPhotos

Upload Photos

1,809,143 photos uploaded!

WunderBlogs® & News

Nearby

Air Quality

  Air Quality AQ Index Pollutant
Not available.

Snow Depth

Station Depth Elevation

Earthquake Activity

City Distance Mag. Time & Date
Minimum magnitude displayed is 2.5.

Coastal Water Temperatures

Place Temperature

Stations

Nearby Weather Stations

Station Location Temp. Windchill Dew Point Humidity Wind Precip. Elev Updated Type
                   
Wind Advisory
Statement as of 3:44 PM CDT on March 28, 2015

... Wind Advisory in effect from 10 am to 6 PM CDT Sunday...

The National Weather Service in Des Moines has issued a Wind
Advisory... which is in effect from 10 am to 6 PM CDT Sunday.

* Timing... from mid morning through the afternoon.

* Winds... sustained northwest winds of 30 to 35 mph... with gusts
as high as around 40 mph.

* Impacts... driving may be difficult at times... especially for
high profile and light weight vehicles. In addition... unsecured
outdoor objects will be blown around.

Precautionary/preparedness actions...

A Wind Advisory means that winds of 35 mph are expected. Winds
this strong can make driving difficult... especially for high
profile vehicles. Use extra caution.



Zogg